American Lake, Washington
Current Conditions -  °F | °C
As of 2:48 AM on Friday 31 Oct 2014 (Local Time) from KGRF Reporting Station
Light Rain Light Rain  
Wind Chill: 52°   Ceiling: 2800
Heat Index: 52°   Visibility: 6mi
Dew Point: 52°   Wind: 2mph
Humidity: 100%   Direction: 180°S
Pressure: 29.75"   Gusts: NA
Location:  47.1451°N, 122.578°W
Report Text: KGRF 310948Z AUTO 18002KT 6SM -RA BR BKN028 BKN037 11/11 A2975 RMK AO2 CIG 028V035
Loading
Personal Weather Stations






























Interactive Weather Map
Tropical Storm Tracking
New forecast layout! Learn more

10-Day Weather Forecast

Advertisements
Track Severe Weather on mobile